createdAt,value
2018-07-13T00:00:26.789Z,99.99
2018-07-13T00:01:35.433Z,99.99
2018-07-13T00:02:44.089Z,99.99
2018-07-13T00:03:52.734Z,99.99
2018-07-13T00:05:01.385Z,99.99
2018-07-13T00:06:10.016Z,99.99
2018-07-13T00:07:18.658Z,99.99
2018-07-13T00:08:27.308Z,99.99
2018-07-13T00:09:35.956Z,99.99
2018-07-13T00:10:44.606Z,99.99
2018-07-13T00:11:53.764Z,99.99
2018-07-13T00:13:02.413Z,99.99
2018-07-13T00:14:11.058Z,99.99
2018-07-13T00:15:19.710Z,99.99
2018-07-13T00:16:28.605Z,99.99
2018-07-13T00:17:37.521Z,99.99
2018-07-13T00:18:46.162Z,99.99
2018-07-13T00:19:54.817Z,99.99
2018-07-13T00:21:03.453Z,99.99
2018-07-13T00:22:12.104Z,99.99
2018-07-13T00:23:20.747Z,99.99
2018-07-13T00:24:29.404Z,99.99
2018-07-13T00:25:38.046Z,99.99
2018-07-13T00:26:46.687Z,99.99
2018-07-13T00:27:55.333Z,99.99
2018-07-13T00:29:03.980Z,99.99
2018-07-13T00:30:12.632Z,99.99
2018-07-13T00:31:21.534Z,99.99
2018-07-13T00:32:30.184Z,99.99
2018-07-13T00:33:38.823Z,99.99
2018-07-13T00:34:47.476Z,99.99
2018-07-13T00:35:56.118Z,99.99
2018-07-13T00:37:04.764Z,99.99
2018-07-13T00:38:13.402Z,99.99
2018-07-13T00:39:22.330Z,99.99
2018-07-13T00:40:31.238Z,99.99
2018-07-13T00:41:40.241Z,99.99
2018-07-13T00:42:48.878Z,99.99
2018-07-13T00:43:58.062Z,99.99
2018-07-13T00:45:06.710Z,99.99
2018-07-13T00:46:15.355Z,99.99
2018-07-13T00:47:24.005Z,99.99
2018-07-13T00:48:32.645Z,99.99
2018-07-13T00:49:41.290Z,99.99
2018-07-13T00:50:49.936Z,99.99
2018-07-13T00:51:58.585Z,99.99
2018-07-13T00:53:07.229Z,99.99
2018-07-13T00:54:15.875Z,99.99
2018-07-13T00:55:24.528Z,99.99
2018-07-13T00:56:33.182Z,99.99
2018-07-13T00:57:42.353Z,99.99
2018-07-13T00:58:51.005Z,99.99
2018-07-13T00:59:59.648Z,99.99
2018-07-13T01:01:08.297Z,99.99
2018-07-13T01:02:16.943Z,99.99
2018-07-13T01:03:25.591Z,99.99
2018-07-13T01:04:34.236Z,99.99
2018-07-13T01:05:42.881Z,99.99
2018-07-13T01:06:51.530Z,99.99
2018-07-13T01:08:00.175Z,99.99
2018-07-13T01:09:08.821Z,99.99
2018-07-13T01:10:17.462Z,99.99
2018-07-13T01:11:26.111Z,99.99
2018-07-13T01:12:34.756Z,99.99
2018-07-13T01:13:43.402Z,99.99
2018-07-13T01:14:52.043Z,99.99
2018-07-13T01:16:00.690Z,99.99
2018-07-13T01:17:09.334Z,99.99
2018-07-13T01:18:18.242Z,99.99
2018-07-13T01:19:26.884Z,99.99
2018-07-13T01:20:35.532Z,99.99
2018-07-13T01:21:44.179Z,99.99
2018-07-13T01:22:52.826Z,99.99
2018-07-13T01:24:01.474Z,99.99
2018-07-13T01:25:10.113Z,99.99
2018-07-13T01:26:18.757Z,99.99
2018-07-13T01:27:27.408Z,99.99
2018-07-13T01:28:36.056Z,99.99
2018-07-13T01:29:44.702Z,99.99
2018-07-13T01:30:53.345Z,99.99
2018-07-13T01:32:01.992Z,99.99
2018-07-13T01:33:10.647Z,99.99
2018-07-13T01:34:19.288Z,99.99
2018-07-13T01:35:28.199Z,99.99
2018-07-13T01:36:36.844Z,99.99
2018-07-13T01:37:45.499Z,99.99
2018-07-13T01:38:54.142Z,99.99
2018-07-13T01:40:02.787Z,99.99
2018-07-13T01:41:11.432Z,99.99
2018-07-13T01:42:20.074Z,99.99
2018-07-13T01:43:28.723Z,99.99
2018-07-13T01:44:37.365Z,99.99
2018-07-13T01:45:46.011Z,99.99
2018-07-13T01:46:54.662Z,99.99
2018-07-13T01:48:03.302Z,99.99
2018-07-13T01:49:11.946Z,99.99
2018-07-13T01:50:20.591Z,99.99
2018-07-13T01:51:29.242Z,99.99
2018-07-13T01:52:37.882Z,99.99
2018-07-13T01:53:46.534Z,99.99
2018-07-13T01:54:55.175Z,99.99
2018-07-13T01:56:03.830Z,99.99
2018-07-13T01:57:12.475Z,99.99
2018-07-13T01:58:21.123Z,99.99
2018-07-13T01:59:29.761Z,99.99
2018-07-13T02:00:38.406Z,99.99
2018-07-13T02:01:47.056Z,99.99
2018-07-13T02:02:55.732Z,99.99
2018-07-13T02:04:04.643Z,99.99
2018-07-13T02:05:13.286Z,99.99
2018-07-13T02:06:22.482Z,99.99
2018-07-13T02:07:31.394Z,99.99
2018-07-13T02:08:40.043Z,99.99
2018-07-13T02:09:49.211Z,99.99
2018-07-13T02:10:57.854Z,99.99
2018-07-13T02:12:06.499Z,99.99
2018-07-13T02:13:15.150Z,99.99
2018-07-13T02:14:23.791Z,99.99
2018-07-13T02:15:32.437Z,99.99
2018-07-13T02:16:41.079Z,99.99
2018-07-13T02:17:50.326Z,99.99
2018-07-13T02:18:58.960Z,99.99
2018-07-13T02:20:07.601Z,99.99
2018-07-13T02:21:16.509Z,99.99
2018-07-13T02:22:25.426Z,99.99
2018-07-13T02:23:34.074Z,99.99
2018-07-13T02:24:42.713Z,99.99
2018-07-13T02:25:51.356Z,99.99
2018-07-13T02:27:00.001Z,99.99
2018-07-13T02:28:08.911Z,99.99
2018-07-13T02:29:17.558Z,99.99
2018-07-13T02:30:26.204Z,99.99
2018-07-13T02:31:35.113Z,99.99
2018-07-13T02:32:44.031Z,99.99
2018-07-13T02:33:52.775Z,99.99
2018-07-13T02:35:01.611Z,99.99
2018-07-13T02:36:10.819Z,99.99
2018-07-13T02:37:19.725Z,99.99
2018-07-13T02:38:28.646Z,99.99
2018-07-13T02:39:37.293Z,99.99
2018-07-13T02:40:46.206Z,99.99
2018-07-13T02:41:54.848Z,99.99
2018-07-13T02:43:03.777Z,99.99
2018-07-13T02:44:13.226Z,99.99
2018-07-13T02:45:21.866Z,99.99
2018-07-13T02:46:30.769Z,99.99
2018-07-13T02:47:39.422Z,99.99
2018-07-13T02:48:48.068Z,99.99
2018-07-13T02:49:56.716Z,99.99
2018-07-13T02:51:05.621Z,99.99
2018-07-13T02:52:14.270Z,99.99
2018-07-13T02:53:22.930Z,99.99
2018-07-13T02:54:31.838Z,99.99
2018-07-13T02:55:40.761Z,99.99
2018-07-13T02:56:50.185Z,99.99
2018-07-13T02:57:59.368Z,99.99
2018-07-13T02:59:08.016Z,99.99
2018-07-13T03:00:16.941Z,99.99
2018-07-13T03:01:25.623Z,99.99
2018-07-13T03:02:34.978Z,99.99
2018-07-13T03:03:43.619Z,99.99
2018-07-13T03:04:52.273Z,99.99
2018-07-13T03:06:00.908Z,99.99
2018-07-13T03:07:09.557Z,99.99
2018-07-13T03:08:18.468Z,99.99
2018-07-13T03:09:27.128Z,99.99
2018-07-13T03:10:35.773Z,99.99
2018-07-13T03:11:44.414Z,99.99
2018-07-13T03:12:53.055Z,99.99
2018-07-13T03:14:01.702Z,99.99
2018-07-13T03:15:10.621Z,99.99
2018-07-13T03:16:19.276Z,99.99
2018-07-13T03:17:28.470Z,99.99
2018-07-13T03:18:37.101Z,99.99
2018-07-13T03:19:45.755Z,99.99
2018-07-13T03:20:54.940Z,99.99
2018-07-13T03:22:03.599Z,99.99
2018-07-13T03:23:13.216Z,99.99
2018-07-13T03:24:22.405Z,99.99
2018-07-13T03:25:31.050Z,99.99
2018-07-13T03:26:39.968Z,99.99
2018-07-13T03:27:48.609Z,99.99
2018-07-13T03:28:57.255Z,99.99
2018-07-13T03:30:05.908Z,99.99
2018-07-13T03:31:15.087Z,99.99
2018-07-13T03:32:24.000Z,99.99
2018-07-13T03:33:32.899Z,99.99
2018-07-13T03:34:41.816Z,99.99
2018-07-13T03:35:50.456Z,99.99
2018-07-13T03:36:59.381Z,99.99
2018-07-13T03:38:08.018Z,99.99
2018-07-13T03:39:16.665Z,99.99
2018-07-13T03:40:25.311Z,99.99
2018-07-13T03:41:33.958Z,99.99
2018-07-13T03:42:42.859Z,99.99
2018-07-13T03:43:51.808Z,99.99
2018-07-13T03:45:00.415Z,99.99
2018-07-13T03:46:09.331Z,99.99
2018-07-13T03:47:18.238Z,99.99
2018-07-13T03:48:27.035Z,99.99
2018-07-13T03:49:35.526Z,99.99
2018-07-13T03:50:44.176Z,99.99
2018-07-13T03:51:52.824Z,99.99
2018-07-13T03:53:01.472Z,99.99
2018-07-13T03:54:10.157Z,99.99
2018-07-13T03:55:18.752Z,99.99
2018-07-13T03:56:27.404Z,99.99
2018-07-13T03:57:36.050Z,99.99
2018-07-13T03:58:44.693Z,99.99
2018-07-13T03:59:53.334Z,99.99
2018-07-13T04:01:01.986Z,99.99
2018-07-13T04:02:10.891Z,99.99
2018-07-13T04:03:19.543Z,99.99
2018-07-13T04:04:28.183Z,99.99
2018-07-13T04:05:36.832Z,99.99
2018-07-13T04:06:45.477Z,99.99
2018-07-13T04:07:54.121Z,99.99
2018-07-13T04:09:03.030Z,99.99
2018-07-13T04:10:11.669Z,99.99
2018-07-13T04:11:20.316Z,99.99
2018-07-13T04:12:28.961Z,99.99
2018-07-13T04:13:37.885Z,99.99
2018-07-13T04:14:46.585Z,99.99
2018-07-13T04:15:55.172Z,99.99
2018-07-13T04:17:03.815Z,99.99
2018-07-13T04:18:12.466Z,99.99
2018-07-13T04:19:21.368Z,99.99
2018-07-13T04:20:30.019Z,99.99
2018-07-13T04:21:38.660Z,99.99
2018-07-13T04:22:47.311Z,99.99
2018-07-13T04:23:56.218Z,99.99
2018-07-13T04:25:04.864Z,99.99
2018-07-13T04:26:13.505Z,99.99
2018-07-13T04:27:22.149Z,99.99
2018-07-13T04:28:30.799Z,99.99
2018-07-13T04:29:39.444Z,99.99
2018-07-13T04:30:48.090Z,99.99
2018-07-13T04:31:56.998Z,99.99
2018-07-13T04:33:05.651Z,99.99
2018-07-13T04:34:14.354Z,99.99
2018-07-13T04:35:22.941Z,99.99
2018-07-13T04:36:31.581Z,99.99
2018-07-13T04:37:40.230Z,99.99
2018-07-13T04:38:48.873Z,99.99
2018-07-13T04:39:57.524Z,99.99
2018-07-13T04:41:06.193Z,99.99
2018-07-13T04:42:14.806Z,99.99
2018-07-13T04:43:23.456Z,99.99
2018-07-13T04:44:32.103Z,99.99
2018-07-13T04:45:40.750Z,99.99
2018-07-13T04:46:49.649Z,99.99
2018-07-13T04:47:58.301Z,99.99
2018-07-13T04:49:07.202Z,99.99
2018-07-13T04:50:15.960Z,99.99
2018-07-13T04:51:24.491Z,99.99
2018-07-13T04:52:33.139Z,99.99
2018-07-13T04:53:41.783Z,99.99
2018-07-13T04:54:50.957Z,99.99
2018-07-13T04:55:59.594Z,99.99
2018-07-13T04:57:08.243Z,99.99
2018-07-13T04:58:16.884Z,99.99
2018-07-13T04:59:25.543Z,99.99
2018-07-13T05:00:34.212Z,99.99
2018-07-13T05:01:43.175Z,99.99
2018-07-13T05:02:51.774Z,99.99
2018-07-13T05:04:00.418Z,99.99
2018-07-13T05:05:09.070Z,99.99
2018-07-13T05:06:18.013Z,99.99
2018-07-13T05:07:26.641Z,99.99
2018-07-13T05:08:35.275Z,99.99
2018-07-13T05:09:43.930Z,99.99
2018-07-13T05:10:52.570Z,99.99
2018-07-13T05:12:01.223Z,99.99
2018-07-13T05:13:09.859Z,99.99
2018-07-13T05:14:18.781Z,99.99
2018-07-13T05:15:27.430Z,99.99
2018-07-13T05:16:36.078Z,99.99
2018-07-13T05:17:44.712Z,99.99
2018-07-13T05:18:53.409Z,99.99
2018-07-13T05:20:02.012Z,99.99
2018-07-13T05:21:10.678Z,99.99
2018-07-13T05:22:19.303Z,99.99
2018-07-13T05:23:28.202Z,99.99
2018-07-13T05:24:37.116Z,99.99
2018-07-13T05:25:46.286Z,99.99
2018-07-13T05:26:54.943Z,99.99
2018-07-13T05:28:03.580Z,99.99
2018-07-13T05:29:12.224Z,99.99
2018-07-13T05:30:20.870Z,99.99
2018-07-13T05:31:29.803Z,99.99
2018-07-13T05:32:38.699Z,99.99
2018-07-13T05:33:47.349Z,99.99
2018-07-13T05:34:55.997Z,99.99
2018-07-13T05:36:04.921Z,99.99
2018-07-13T05:37:13.564Z,99.99
2018-07-13T05:38:22.230Z,99.99
2018-07-13T05:39:30.860Z,99.99
2018-07-13T05:40:39.509Z,99.99
2018-07-13T05:41:48.146Z,99.99
2018-07-13T05:42:57.065Z,99.99
2018-07-13T05:44:05.709Z,99.99
2018-07-13T05:45:14.360Z,99.99
2018-07-13T05:46:22.996Z,99.99
2018-07-13T05:47:31.652Z,99.99
2018-07-13T05:48:40.292Z,99.99
2018-07-13T05:49:48.946Z,99.99
2018-07-13T05:50:57.580Z,99.99
2018-07-13T05:52:06.500Z,99.99
2018-07-13T05:53:15.408Z,99.99
2018-07-13T05:54:24.059Z,99.99
2018-07-13T05:55:32.710Z,99.99
2018-07-13T05:56:41.350Z,99.99
2018-07-13T05:57:49.994Z,99.99
2018-07-13T05:58:58.637Z,99.99
2018-07-13T06:00:07.554Z,99.99
2018-07-13T06:01:16.196Z,99.99
2018-07-13T06:02:24.887Z,99.99
2018-07-13T06:03:33.489Z,99.99
2018-07-13T06:04:42.145Z,99.99
2018-07-13T06:05:50.788Z,99.99
2018-07-13T06:06:59.438Z,99.99
2018-07-13T06:08:08.076Z,99.99
2018-07-13T06:09:16.739Z,99.99
2018-07-13T06:10:25.383Z,99.99
2018-07-13T06:11:34.032Z,99.99
2018-07-13T06:12:42.669Z,99.99
2018-07-13T06:13:51.317Z,99.99
2018-07-13T06:15:00.328Z,99.99
2018-07-13T06:16:08.931Z,99.99
2018-07-13T06:17:17.578Z,99.99
2018-07-13T06:18:26.213Z,99.99
2018-07-13T06:19:34.864Z,99.99
2018-07-13T06:20:43.506Z,99.99
2018-07-13T06:21:52.163Z,99.99
2018-07-13T06:23:00.800Z,99.99
2018-07-13T06:24:09.472Z,99.99
2018-07-13T06:25:18.402Z,99.99
2018-07-13T06:26:27.058Z,99.99
2018-07-13T06:27:35.697Z,99.99
2018-07-13T06:28:44.879Z,99.99
2018-07-13T06:29:53.525Z,99.99
2018-07-13T06:31:02.449Z,99.99
2018-07-13T06:32:11.092Z,99.99
2018-07-13T06:33:19.734Z,99.99
2018-07-13T06:34:28.378Z,99.99
2018-07-13T06:35:37.026Z,99.99
2018-07-13T06:36:46.214Z,99.99
2018-07-13T06:37:54.860Z,99.99
2018-07-13T06:39:03.506Z,99.99
2018-07-13T06:40:12.151Z,99.99
2018-07-13T06:41:20.796Z,99.99
2018-07-13T06:42:29.445Z,99.99
2018-07-13T06:43:38.092Z,99.99
2018-07-13T06:44:46.744Z,99.99
2018-07-13T06:45:56.046Z,99.99
2018-07-13T06:47:04.957Z,99.99
2018-07-13T06:48:13.877Z,99.99
2018-07-13T06:49:22.525Z,99.99
2018-07-13T06:50:31.184Z,99.99
2018-07-13T06:51:39.821Z,99.99
2018-07-13T06:52:48.464Z,99.99
2018-07-13T06:53:57.113Z,99.99
2018-07-13T06:55:06.025Z,99.99
2018-07-13T06:56:14.672Z,99.99
2018-07-13T06:57:23.319Z,99.99
2018-07-13T06:58:31.971Z,99.99
2018-07-13T06:59:40.878Z,99.99
2018-07-13T07:00:49.522Z,99.99
2018-07-13T07:01:58.169Z,99.82
2018-07-13T07:03:06.820Z,99.99
2018-07-13T07:04:15.462Z,99.43
2018-07-13T07:05:24.110Z,99.63
2018-07-13T07:06:32.753Z,99.99
2018-07-13T07:07:41.493Z,99.99
2018-07-13T07:08:50.052Z,99.99
2018-07-13T07:09:58.699Z,99.99
2018-07-13T07:11:07.615Z,99.99
2018-07-13T07:12:16.259Z,99.99
2018-07-13T07:13:24.916Z,99.99
2018-07-13T07:14:33.563Z,99.05
2018-07-13T07:15:42.213Z,98
2018-07-13T07:16:50.856Z,98.86
2018-07-13T07:17:59.515Z,98.24
2018-07-13T07:19:08.424Z,98.91
2018-07-13T07:20:17.074Z,99.48
2018-07-13T07:21:25.716Z,98.05
2018-07-13T07:22:34.366Z,96.89
2018-07-13T07:23:43.280Z,97.09
2018-07-13T07:24:51.925Z,96.42
2018-07-13T07:26:00.571Z,96.42
2018-07-13T07:27:09.220Z,95.94
2018-07-13T07:28:17.867Z,96.51
2018-07-13T07:29:27.042Z,97.18
2018-07-13T07:30:36.389Z,97.38
2018-07-13T07:31:45.218Z,95.36
2018-07-13T07:32:54.397Z,94.69
2018-07-13T07:34:03.042Z,95.94
2018-07-13T07:35:11.689Z,95.31
2018-07-13T07:36:20.340Z,95.21
2018-07-13T07:37:28.985Z,94.84
2018-07-13T07:38:38.022Z,95.12
2018-07-13T07:39:46.682Z,94.84
2018-07-13T07:40:55.324Z,94.17
2018-07-13T07:42:04.237Z,94.93
2018-07-13T07:43:12.881Z,93.49
2018-07-13T07:44:21.533Z,92.77
2018-07-13T07:45:30.182Z,92.91
2018-07-13T07:46:38.830Z,92.77
2018-07-13T07:47:47.474Z,92.82
2018-07-13T07:48:56.120Z,92.15
2018-07-13T07:50:04.785Z,91.96
2018-07-13T07:51:15.445Z,92.91
2018-07-13T07:52:26.903Z,93.4
2018-07-13T07:53:35.547Z,92.86
2018-07-13T07:54:44.469Z,92.96
2018-07-13T07:55:53.116Z,91.91
2018-07-13T07:57:02.145Z,92.96
2018-07-13T07:58:10.789Z,92
2018-07-13T07:59:19.448Z,93.88
2018-07-13T08:00:28.090Z,94.45
2018-07-13T08:01:36.803Z,95.03
2018-07-13T08:02:45.387Z,93.78
2018-07-13T08:03:54.346Z,94.93
2018-07-13T08:05:02.993Z,92.91
2018-07-13T08:06:12.058Z,92.82
2018-07-13T08:07:20.675Z,93.88
2018-07-13T08:08:29.579Z,93.88
2018-07-13T08:09:38.230Z,93.59
2018-07-13T08:10:46.874Z,91.81
2018-07-13T08:11:55.527Z,92.68
2018-07-13T08:13:04.438Z,91.62
2018-07-13T08:14:13.380Z,92
2018-07-13T08:15:21.732Z,93.15
2018-07-13T08:16:30.404Z,93.44
2018-07-13T08:17:39.291Z,94.02
2018-07-13T08:18:47.938Z,92.68
2018-07-13T08:19:56.588Z,92.1
2018-07-13T08:21:05.240Z,91.91
2018-07-13T08:22:13.884Z,92.19
2018-07-13T08:23:22.790Z,93.92
2018-07-13T08:24:31.434Z,93.35
2018-07-13T08:25:40.081Z,93.15
2018-07-13T08:26:48.793Z,92.48
2018-07-13T08:27:57.378Z,91.81
2018-07-13T08:29:06.026Z,90.66
2018-07-13T08:30:14.668Z,91.52
2018-07-13T08:31:23.322Z,91.72
2018-07-13T08:32:31.974Z,92.86
2018-07-13T08:33:40.616Z,92.72
2018-07-13T08:34:49.525Z,91.38
2018-07-13T08:35:58.448Z,91.09
2018-07-13T08:37:07.092Z,90.03
2018-07-13T08:38:15.749Z,89.94
2018-07-13T08:39:24.384Z,88.88
2018-07-13T08:40:33.036Z,89.94
2018-07-13T08:41:41.955Z,91.57
2018-07-13T08:42:50.605Z,90.8
2018-07-13T08:43:59.538Z,89.07
2018-07-13T08:45:08.163Z,90.13
2018-07-13T08:46:16.814Z,91.38
2018-07-13T08:47:25.460Z,92.14
2018-07-13T08:48:34.118Z,92.29
2018-07-13T08:49:42.758Z,90.99
2018-07-13T08:50:51.409Z,90.27
2018-07-13T08:52:00.056Z,87.87
2018-07-13T08:53:08.717Z,87.96
2018-07-13T08:54:17.628Z,88.06
2018-07-13T08:55:26.280Z,89.6
2018-07-13T08:56:34.924Z,88.93
2018-07-13T08:57:43.581Z,87.68
2018-07-13T08:58:52.490Z,87.1
2018-07-13T09:00:01.136Z,86.14
2018-07-13T09:01:09.781Z,86.33
2018-07-13T09:02:18.427Z,87.87
2018-07-13T09:03:27.087Z,87.58
2018-07-13T09:04:35.834Z,86.24
2018-07-13T09:05:44.780Z,85.85
2018-07-13T09:06:53.403Z,87.1
2018-07-13T09:08:02.061Z,87.72
2018-07-13T09:09:10.707Z,88.3
2018-07-13T09:10:19.359Z,86.95
2018-07-13T09:11:28.261Z,86.76
2018-07-13T09:12:36.921Z,86.76
2018-07-13T09:13:45.568Z,87.05
2018-07-13T09:14:54.219Z,86.38
2018-07-13T09:16:02.857Z,86.38
2018-07-13T09:17:11.775Z,84.94
2018-07-13T09:18:20.559Z,83.69
2018-07-13T09:19:29.349Z,83.2
2018-07-13T09:20:38.313Z,84.64
2018-07-13T09:21:46.911Z,85.71
2018-07-13T09:22:55.835Z,85.55
2018-07-13T09:24:04.490Z,84.3
2018-07-13T09:25:13.142Z,84.4
2018-07-13T09:26:21.784Z,83.53
2018-07-13T09:27:30.974Z,84.3
2018-07-13T09:28:39.623Z,84.4
2018-07-13T09:29:48.277Z,85.07
2018-07-13T09:30:56.914Z,84.34
2018-07-13T09:32:05.572Z,84.3
2018-07-13T09:33:14.224Z,84.34
2018-07-13T09:34:22.862Z,84.16
2018-07-13T09:35:31.801Z,81.84
2018-07-13T09:36:40.455Z,81.65
2018-07-13T09:37:49.110Z,82.32
2018-07-13T09:38:57.759Z,83.29
2018-07-13T09:40:06.401Z,82.42
2018-07-13T09:41:15.052Z,83.09
2018-07-13T09:42:23.699Z,81.65
2018-07-13T09:43:32.358Z,82.52
2018-07-13T09:44:40.997Z,81.65
2018-07-13T09:45:49.652Z,81.46
2018-07-13T09:46:58.463Z,81.98
2018-07-13T09:48:06.958Z,82.32
2018-07-13T09:49:15.600Z,82.27
2018-07-13T09:50:24.255Z,81.7
2018-07-13T09:51:33.506Z,80.63
2018-07-13T09:52:42.163Z,80.06
2018-07-13T09:53:51.204Z,79.77
2018-07-13T09:55:00.288Z,81.79
2018-07-13T09:56:08.936Z,81.79
2018-07-13T09:57:17.583Z,79.28
2018-07-13T09:58:26.240Z,77.59
2018-07-13T09:59:34.885Z,77.26
2018-07-13T10:00:43.688Z,78.33
2018-07-13T10:01:52.182Z,79.77
2018-07-13T10:03:00.838Z,78.08
2018-07-13T10:04:09.482Z,79.81
2018-07-13T10:05:18.159Z,80.87
2018-07-13T10:06:26.776Z,77.88
2018-07-13T10:07:35.433Z,76.73
2018-07-13T10:08:44.081Z,78.56
2018-07-13T10:09:52.732Z,78.36
2018-07-13T10:11:01.635Z,78.59
2018-07-13T10:12:10.290Z,77.92
2018-07-13T10:13:19.240Z,78.59
2018-07-13T10:14:27.867Z,77.92
2018-07-13T10:15:36.788Z,78.31
2018-07-13T10:16:45.426Z,74.84
2018-07-13T10:17:54.094Z,75.03
2018-07-13T10:19:02.731Z,74.74
2018-07-13T10:20:11.919Z,76.18
2018-07-13T10:21:20.558Z,75.71
2018-07-13T10:22:29.487Z,76.23
2018-07-13T10:23:38.397Z,76.71
2018-07-13T10:24:47.060Z,75.07
2018-07-13T10:25:55.695Z,75.45
2018-07-13T10:27:04.345Z,74.4
2018-07-13T10:28:12.993Z,75.07
2018-07-13T10:29:21.653Z,74.78
2018-07-13T10:30:30.300Z,74.52
2018-07-13T10:31:38.947Z,72.6
2018-07-13T10:32:47.598Z,72.75
2018-07-13T10:33:56.247Z,73.57
2018-07-13T10:35:04.901Z,73.47
2018-07-13T10:36:13.552Z,75.01
2018-07-13T10:37:22.204Z,74.91
2018-07-13T10:38:30.849Z,72.6
2018-07-13T10:39:39.504Z,72.99
2018-07-13T10:40:48.157Z,74.33
2018-07-13T10:41:56.808Z,73.18
2018-07-13T10:43:05.719Z,73.37
2018-07-13T10:44:14.373Z,73.5
2018-07-13T10:45:23.023Z,72.15
2018-07-13T10:46:31.933Z,71.19
2018-07-13T10:47:40.645Z,70.61
2018-07-13T10:48:49.234Z,69.74
2018-07-13T10:49:57.897Z,70.8
2018-07-13T10:51:06.555Z,71.58
2018-07-13T10:52:15.206Z,72.06
2018-07-13T10:53:23.850Z,70.61
2018-07-13T10:54:32.502Z,73.11
2018-07-13T10:55:41.152Z,70.16
2018-07-13T10:56:50.075Z,69.84
2018-07-13T10:57:58.724Z,70.54
2018-07-13T10:59:07.642Z,69.1
2018-07-13T11:00:16.294Z,68.81
2018-07-13T11:01:24.951Z,68.91
2018-07-13T11:02:33.599Z,70.54
2018-07-13T11:03:42.251Z,69.29
2018-07-13T11:04:50.900Z,69.58
2018-07-13T11:05:59.574Z,69.2
2018-07-13T11:07:08.499Z,69.29
2018-07-13T11:08:17.162Z,68.91
2018-07-13T11:09:25.810Z,70.54
2018-07-13T11:10:34.458Z,71.03
2018-07-13T11:11:43.546Z,71.42
2018-07-13T11:12:52.526Z,68.52
2018-07-13T11:14:01.193Z,68.13
2018-07-13T11:15:09.825Z,68.52
2018-07-13T11:16:18.487Z,69.49
2018-07-13T11:17:27.138Z,69.39
2018-07-13T11:18:35.789Z,69.49
2018-07-13T11:19:44.450Z,70.54
2018-07-13T11:20:53.127Z,70.87
2018-07-13T11:22:01.777Z,70.68
2018-07-13T11:23:10.430Z,69.32
2018-07-13T11:24:19.154Z,70.68
2018-07-13T11:25:28.160Z,71.16
2018-07-13T11:26:36.807Z,70.78
2018-07-13T11:27:45.465Z,68.75
2018-07-13T11:28:54.121Z,68.26
2018-07-13T11:30:02.767Z,67.14
2018-07-13T11:31:11.418Z,66.63
2018-07-13T11:32:20.067Z,67.01
2018-07-13T11:33:28.725Z,66.33
2018-07-13T11:34:37.371Z,67.59
2018-07-13T11:35:46.288Z,68.26
2018-07-13T11:36:55.250Z,66.91
2018-07-13T11:38:03.865Z,68.4
2018-07-13T11:39:12.509Z,68.2
2018-07-13T11:40:21.163Z,66.46
2018-07-13T11:41:29.818Z,67.24
2018-07-13T11:42:38.740Z,66.75
2018-07-13T11:43:47.389Z,67.82
2018-07-13T11:44:56.039Z,67.82
2018-07-13T11:46:04.682Z,66.17
2018-07-13T11:47:13.335Z,66.08
2018-07-13T11:48:21.999Z,66.08
2018-07-13T11:49:30.645Z,65.3
2018-07-13T11:50:39.303Z,66.56
2018-07-13T11:51:47.989Z,65.98
2018-07-13T11:52:56.604Z,63.95
2018-07-13T11:54:05.522Z,64.53
2018-07-13T11:55:14.179Z,65.01
2018-07-13T11:56:22.822Z,65.98
2018-07-13T11:57:31.483Z,67.24
2018-07-13T11:58:40.133Z,67.17
2018-07-13T11:59:48.791Z,65.63
2018-07-13T12:00:57.697Z,65.24
2018-07-13T12:02:06.357Z,64.95
2018-07-13T12:03:15.014Z,65.63
2018-07-13T12:04:23.669Z,66.98
2018-07-13T12:05:32.324Z,65.24
2018-07-13T12:06:40.967Z,65.66
2018-07-13T12:07:50.127Z,62.95
2018-07-13T12:08:58.534Z,63.73
2018-07-13T12:10:07.196Z,64.11
2018-07-13T12:11:15.840Z,65.08
2018-07-13T12:12:24.497Z,64.01
2018-07-13T12:13:33.446Z,62.01
2018-07-13T12:14:42.371Z,61.4
2018-07-13T12:15:51.014Z,61.24
2018-07-13T12:16:59.670Z,61.05
2018-07-13T12:18:08.318Z,61.79
2018-07-13T12:19:16.979Z,62.79
2018-07-13T12:20:25.628Z,63.24
2018-07-13T12:21:34.280Z,64.43
2018-07-13T12:22:42.928Z,64.62
2018-07-13T12:23:51.611Z,64.72
2018-07-13T12:25:00.552Z,64.14
2018-07-13T12:26:09.202Z,62.88
2018-07-13T12:27:17.856Z,61.72
2018-07-13T12:28:26.757Z,62.88
2018-07-13T12:29:35.415Z,64.62
2018-07-13T12:30:44.069Z,62.79
2018-07-13T12:31:52.726Z,64.24
2018-07-13T12:33:01.656Z,62.69
2018-07-13T12:34:10.648Z,61.72
2018-07-13T12:35:19.304Z,63.18
2018-07-13T12:36:27.964Z,63.95
2018-07-13T12:37:36.612Z,61.72
2018-07-13T12:38:45.525Z,63.27
2018-07-13T12:39:54.503Z,65.59
2018-07-13T12:41:03.096Z,66.37
2018-07-13T12:42:11.748Z,62.69
2018-07-13T12:43:20.658Z,61.82
2018-07-13T12:44:29.310Z,62.01
2018-07-13T12:45:38.063Z,64.43
2018-07-13T12:46:47.055Z,62.79
2018-07-13T12:47:56.018Z,61.82
2018-07-13T12:49:04.772Z,61.63
2018-07-13T12:50:13.410Z,61.27
2018-07-13T12:51:22.463Z,61.63
2018-07-13T12:52:31.373Z,61.92
2018-07-13T12:53:40.294Z,61.15
2018-07-13T12:54:48.942Z,62.21
2018-07-13T12:55:57.600Z,62.98
2018-07-13T12:57:06.286Z,64.14
2018-07-13T12:58:14.940Z,60.57
2018-07-13T12:59:23.918Z,61.92
2018-07-13T13:00:33.270Z,64.14
2018-07-13T13:01:41.926Z,62.01
2018-07-13T13:02:50.582Z,60.08
2018-07-13T13:03:59.230Z,60.75
2018-07-13T13:05:07.879Z,61.72
2018-07-13T13:06:16.810Z,61.92
2018-07-13T13:07:25.463Z,60.27
2018-07-13T13:08:34.117Z,59.91
2018-07-13T13:09:42.764Z,60.59
2018-07-13T13:10:51.423Z,60.78
2018-07-13T13:12:00.339Z,61.56
2018-07-13T13:13:08.994Z,59.91
2018-07-13T13:14:17.643Z,60.91
2018-07-13T13:15:26.447Z,58.88
2018-07-13T13:16:34.948Z,58.78
2018-07-13T13:17:43.604Z,60.52
2018-07-13T13:18:52.262Z,60.04
2018-07-13T13:20:01.174Z,60.91
2018-07-13T13:21:09.830Z,61.01
2018-07-13T13:22:18.481Z,60.82
2018-07-13T13:23:27.403Z,58.27
2018-07-13T13:24:36.079Z,58.85
2018-07-13T13:25:44.727Z,59.05
2018-07-13T13:26:53.381Z,59.43
2018-07-13T13:28:02.492Z,59.94
2018-07-13T13:29:11.343Z,59.17
2018-07-13T13:30:20.104Z,64.11
2018-07-13T13:31:28.798Z,62.07
2018-07-13T13:32:37.761Z,61.21
2018-07-13T13:33:46.416Z,59.07
2018-07-13T13:34:55.069Z,59.17
2018-07-13T13:36:03.983Z,58.33
2018-07-13T13:37:12.638Z,57.84
2018-07-13T13:38:21.551Z,56.68
2018-07-13T13:39:30.204Z,56.29
2018-07-13T13:40:39.119Z,57.07
2018-07-13T13:41:47.779Z,56.87
2018-07-13T13:42:56.426Z,57.68
2018-07-13T13:44:05.078Z,56.61
2018-07-13T13:45:13.792Z,54.67
2018-07-13T13:46:22.446Z,56.81
2018-07-13T13:47:31.103Z,59.52
2018-07-13T13:48:40.027Z,58.74
2018-07-13T13:49:49.021Z,61.75
2018-07-13T13:50:57.598Z,62.13
2018-07-13T13:52:06.254Z,60.58
2018-07-13T13:53:14.904Z,57.07
2018-07-13T13:54:23.557Z,58.91
2018-07-13T13:55:32.207Z,58.91
2018-07-13T13:56:40.869Z,61.98
2018-07-13T13:57:49.517Z,61.01
2018-07-13T13:58:58.172Z,61.11
2018-07-13T14:00:07.079Z,61.3
2018-07-13T14:01:15.737Z,61.46
2018-07-13T14:02:24.389Z,59.94
2018-07-13T14:03:33.044Z,62.53
2018-07-13T14:04:41.693Z,62.82
2018-07-13T14:05:50.375Z,62.92
2018-07-13T14:06:59.004Z,63.01
2018-07-13T14:08:07.926Z,62.14
2018-07-13T14:09:16.651Z,63.27
2018-07-13T14:10:25.226Z,64.47
2018-07-13T14:11:33.879Z,62.72
2018-07-13T14:12:42.533Z,62.01
2018-07-13T14:13:51.190Z,61.92
2018-07-13T14:15:00.103Z,62.88
2018-07-13T14:16:09.016Z,60.98
2018-07-13T14:17:17.670Z,59.82
2018-07-13T14:18:26.328Z,62.53
2018-07-13T14:19:34.978Z,61.36
2018-07-13T14:20:43.890Z,59.43
2018-07-13T14:21:52.805Z,60.69
2018-07-13T14:23:01.459Z,58.39
2018-07-13T14:24:10.114Z,57.43
2018-07-13T14:25:18.768Z,55.88
2018-07-13T14:26:27.415Z,57.33
2018-07-13T14:27:36.077Z,57.84
2018-07-13T14:28:44.987Z,56.85
2018-07-13T14:29:53.909Z,58.49
2018-07-13T14:31:02.560Z,59.17
2018-07-13T14:32:11.209Z,59.46
2018-07-13T14:33:19.870Z,57.91
2018-07-13T14:34:28.810Z,60.62
2018-07-13T14:35:37.453Z,60.82
2018-07-13T14:36:46.097Z,61.79
2018-07-13T14:37:54.758Z,60.52
2018-07-13T14:39:03.406Z,61.49
2018-07-13T14:40:12.094Z,61.69
2018-07-13T14:41:20.717Z,62.92
2018-07-13T14:42:29.383Z,64.66
2018-07-13T14:43:38.032Z,64.56
2018-07-13T14:44:46.990Z,64.82
2018-07-13T14:45:55.685Z,65.59